![]() |
EMODnet Physics ERDDAP
Easier access to scientific data |
log in|
Brought to you by EMODnet Physics |
| Dataset Title: | NDBC - Collection of dew point temperature (DEWT) TimeSeries - IN SITU MultiPointTimeSeriesObservation
|
| Institution: | NDBC (Dataset ID: TS_DEWT_NDBC) |
| Information: | Summary
| License
| FGDC
| ISO 19115
| Metadata
| Background
| Subset
| Data Access Form
| Make a graph
|
| Name | Last modified | Size | Description | |
|---|---|---|---|---|
| Parent Directory | - | - | ||
| 46006_TS_DEWT_011978.nc | 26-Oct-2024 21:51 | 429612 | ||
| 46006_TS_DEWT_011979.nc | 26-Oct-2024 21:51 | 429614 | ||
| 46006_TS_DEWT_011982.nc | 26-Oct-2024 21:51 | 429620 | ||
| 46006_TS_DEWT_011983.nc | 26-Oct-2024 21:51 | 429607 | ||
| 46006_TS_DEWT_011984.nc | 26-Oct-2024 21:51 | 429608 | ||
| 46006_TS_DEWT_011985.nc | 26-Oct-2024 21:51 | 429615 | ||
| 46006_TS_DEWT_011986.nc | 26-Oct-2024 21:52 | 450023 | ||
| 46006_TS_DEWT_011987.nc | 26-Oct-2024 21:52 | 450892 | ||
| 46006_TS_DEWT_011988.nc | 26-Oct-2024 21:52 | 450077 | ||
| 46006_TS_DEWT_011989.nc | 26-Oct-2024 21:52 | 451244 | ||
| 46006_TS_DEWT_011990.nc | 26-Oct-2024 21:52 | 451445 | ||
| 46006_TS_DEWT_011991.nc | 26-Oct-2024 21:52 | 451341 | ||
| 46006_TS_DEWT_011993.nc | 26-Oct-2024 21:52 | 451152 | ||
| 46006_TS_DEWT_011994.nc | 26-Oct-2024 21:52 | 450810 | ||
| 46006_TS_DEWT_011995.nc | 26-Oct-2024 21:52 | 451054 | ||
| 46006_TS_DEWT_011996.nc | 26-Oct-2024 21:52 | 436446 | ||
| 46006_TS_DEWT_011997.nc | 26-Oct-2024 21:52 | 429811 | ||
| 46006_TS_DEWT_011998.nc | 26-Oct-2024 21:52 | 429837 | ||
| 46006_TS_DEWT_011999.nc | 26-Oct-2024 21:52 | 451549 | ||
| 46006_TS_DEWT_012001.nc | 26-Oct-2024 21:52 | 440127 | ||
| 46006_TS_DEWT_012002.nc | 26-Oct-2024 21:52 | 450648 | ||
| 46006_TS_DEWT_012003.nc | 26-Oct-2024 21:52 | 449881 | ||
| 46006_TS_DEWT_012004.nc | 26-Oct-2024 21:53 | 429839 | ||
| 46006_TS_DEWT_012005.nc | 26-Oct-2024 21:53 | 429717 | ||
| 46006_TS_DEWT_012006.nc | 26-Oct-2024 21:53 | 429819 | ||
| 46006_TS_DEWT_012009.nc | 26-Oct-2024 21:53 | 427608 | ||
| 46006_TS_DEWT_012010.nc | 26-Oct-2024 21:53 | 1262377 | ||
| 46006_TS_DEWT_012011.nc | 26-Oct-2024 21:53 | 1200726 | ||
| 46006_TS_DEWT_012012.nc | 26-Oct-2024 21:53 | 4331857 | ||
| 46006_TS_DEWT_012013.nc | 26-Oct-2024 21:53 | 3733899 | ||
| 46006_TS_DEWT_012017.nc | 26-Oct-2024 21:53 | 429253 | ||
| 46006_TS_DEWT_012018.nc | 26-Oct-2024 21:53 | 429116 | ||
| 46006_TS_DEWT_012019.nc | 26-Oct-2024 21:53 | 423085 | ||
| 46006_TS_DEWT_012020.nc | 26-Oct-2024 21:53 | 429281 | ||
| 46006_TS_DEWT_012021.nc | 26-Oct-2024 21:53 | 429289 | ||
| 46006_TS_DEWT_012022.nc | 26-Oct-2024 21:53 | 429244 | ||
| 46006_TS_DEWT_012023.nc | 26-Oct-2024 21:53 | 429237 | ||
| 46006_TS_DEWT_012024.nc | 06-Dec-2024 13:12 | 429285 | ||
| 46006_TS_DEWT_012025.nc | 07-Feb-2025 13:02 | 429288 | ||
| 46006_TS_DEWT_021978.nc | 26-Oct-2024 21:53 | 429287 | ||
| 46006_TS_DEWT_021979.nc | 26-Oct-2024 21:53 | 429293 | ||
| 46006_TS_DEWT_021982.nc | 26-Oct-2024 21:53 | 429281 | ||
| 46006_TS_DEWT_021983.nc | 26-Oct-2024 21:53 | 429283 | ||
| 46006_TS_DEWT_021984.nc | 26-Oct-2024 21:54 | 429292 | ||
| 46006_TS_DEWT_021985.nc | 26-Oct-2024 21:54 | 429287 | ||
| 46006_TS_DEWT_021986.nc | 26-Oct-2024 21:54 | 429285 | ||
| 46006_TS_DEWT_021987.nc | 26-Oct-2024 21:54 | 449327 | ||
| 46006_TS_DEWT_021988.nc | 26-Oct-2024 21:54 | 449708 | ||
| 46006_TS_DEWT_021989.nc | 26-Oct-2024 21:54 | 449311 | ||
| 46006_TS_DEWT_021990.nc | 26-Oct-2024 21:54 | 449154 | ||
| 46006_TS_DEWT_021993.nc | 26-Oct-2024 21:54 | 449731 | ||
| 46006_TS_DEWT_021994.nc | 26-Oct-2024 21:54 | 450033 | ||
| 46006_TS_DEWT_021995.nc | 26-Oct-2024 21:54 | 450158 | ||
| 46006_TS_DEWT_021996.nc | 26-Oct-2024 21:54 | 450299 | ||
| 46006_TS_DEWT_021997.nc | 26-Oct-2024 21:54 | 449052 | ||
| 46006_TS_DEWT_021998.nc | 26-Oct-2024 21:54 | 429488 | ||
| 46006_TS_DEWT_021999.nc | 26-Oct-2024 21:54 | 429489 | ||
| 46006_TS_DEWT_022001.nc | 26-Oct-2024 21:54 | 429493 | ||
| 46006_TS_DEWT_022002.nc | 26-Oct-2024 21:54 | 449172 | ||
| 46006_TS_DEWT_022003.nc | 26-Oct-2024 21:54 | 448628 | ||
| 46006_TS_DEWT_022004.nc | 26-Oct-2024 21:54 | 448858 | ||
| 46006_TS_DEWT_022005.nc | 26-Oct-2024 21:55 | 448555 | ||
| 46006_TS_DEWT_022006.nc | 26-Oct-2024 21:55 | 434073 | ||
| 46006_TS_DEWT_022009.nc | 26-Oct-2024 21:55 | 429488 | ||
| 46006_TS_DEWT_022011.nc | 26-Oct-2024 21:55 | 429492 | ||
| 46006_TS_DEWT_022012.nc | 26-Oct-2024 21:55 | 429373 | ||
| 46006_TS_DEWT_022013.nc | 26-Oct-2024 21:55 | 429468 | ||
| 46006_TS_DEWT_022017.nc | 26-Oct-2024 21:55 | 1114664 | ||
| 46006_TS_DEWT_022018.nc | 26-Oct-2024 21:55 | 995530 | ||
| 46006_TS_DEWT_022019.nc | 26-Oct-2024 21:55 | 4703707 | ||
| 46006_TS_DEWT_022021.nc | 26-Oct-2024 21:55 | 429581 | ||
| 46006_TS_DEWT_022022.nc | 26-Oct-2024 21:55 | 429504 | ||
| 46006_TS_DEWT_022023.nc | 26-Oct-2024 21:55 | 419261 | ||
| 46006_TS_DEWT_022025.nc | 01-Mar-2025 04:25 | 429614 | ||
| 46006_TS_DEWT_031978.nc | 26-Oct-2024 21:55 | 429599 | ||
| 46006_TS_DEWT_031979.nc | 26-Oct-2024 21:55 | 429618 | ||
| 46006_TS_DEWT_031980.nc | 26-Oct-2024 21:55 | 429616 | ||
| 46006_TS_DEWT_031982.nc | 26-Oct-2024 21:55 | 429607 | ||
| 46006_TS_DEWT_031983.nc | 26-Oct-2024 21:56 | 429612 | ||
| 46006_TS_DEWT_031985.nc | 26-Oct-2024 21:56 | 423797 | ||
| 46006_TS_DEWT_031987.nc | 26-Oct-2024 21:56 | 429592 | ||
| 46006_TS_DEWT_031988.nc | 26-Oct-2024 21:56 | 429608 | ||
| 46006_TS_DEWT_031989.nc | 26-Oct-2024 21:56 | 429621 | ||
| 46006_TS_DEWT_031990.nc | 26-Oct-2024 21:56 | 425666 | ||
| 46006_TS_DEWT_031993.nc | 26-Oct-2024 21:56 | 429291 | ||
| 46006_TS_DEWT_031994.nc | 26-Oct-2024 21:56 | 429614 | ||
| 46006_TS_DEWT_031995.nc | 26-Oct-2024 21:56 | 429608 | ||
| 46006_TS_DEWT_031996.nc | 26-Oct-2024 21:56 | 450151 | ||
| 46006_TS_DEWT_031997.nc | 26-Oct-2024 21:56 | 451470 | ||
| 46006_TS_DEWT_031998.nc | 26-Oct-2024 21:56 | 451134 | ||
| 46006_TS_DEWT_031999.nc | 26-Oct-2024 21:56 | 450791 | ||
| 46006_TS_DEWT_032001.nc | 26-Oct-2024 21:56 | 450421 | ||
| 46006_TS_DEWT_032002.nc | 26-Oct-2024 21:56 | 451050 | ||
| 46006_TS_DEWT_032003.nc | 26-Oct-2024 21:57 | 450917 | ||
| 46006_TS_DEWT_032004.nc | 26-Oct-2024 21:57 | 451046 | ||
| 46006_TS_DEWT_032005.nc | 26-Oct-2024 21:57 | 450529 | ||
| 46006_TS_DEWT_032006.nc | 26-Oct-2024 21:57 | 429836 | ||
| 46006_TS_DEWT_032009.nc | 26-Oct-2024 21:57 | 429831 | ||
| 46006_TS_DEWT_032011.nc | 26-Oct-2024 21:57 | 429830 | ||
| 46006_TS_DEWT_032012.nc | 26-Oct-2024 21:57 | 450760 | ||
| 46006_TS_DEWT_032017.nc | 26-Oct-2024 21:57 | 450685 | ||
| 46006_TS_DEWT_032018.nc | 26-Oct-2024 21:57 | 450556 | ||
| 46006_TS_DEWT_032019.nc | 26-Oct-2024 21:57 | 450023 | ||
| 46006_TS_DEWT_032021.nc | 26-Oct-2024 21:57 | 449936 | ||
| 46006_TS_DEWT_032022.nc | 26-Oct-2024 21:57 | 429836 | ||
| 46006_TS_DEWT_032023.nc | 26-Oct-2024 21:57 | 446157 | ||
| 46006_TS_DEWT_032025.nc | 02-Apr-2025 07:32 | 429838 | ||
| 46006_TS_DEWT_041977.nc | 26-Oct-2024 21:57 | 429831 | ||
| 46006_TS_DEWT_041978.nc | 26-Oct-2024 21:57 | 1009363 | ||
| 46006_TS_DEWT_041979.nc | 26-Oct-2024 21:57 | 1144137 | ||
| 46006_TS_DEWT_041980.nc | 26-Oct-2024 21:57 | 5487414 | ||
| 46006_TS_DEWT_041982.nc | 26-Oct-2024 21:57 | 429264 | ||
| 46006_TS_DEWT_041983.nc | 26-Oct-2024 21:57 | 429268 | ||
| 46006_TS_DEWT_041985.nc | 26-Oct-2024 21:57 | 421235 | ||
| 46006_TS_DEWT_041987.nc | 26-Oct-2024 21:58 | 429284 | ||
| 46006_TS_DEWT_041989.nc | 26-Oct-2024 21:58 | 429286 | ||
| 46006_TS_DEWT_041990.nc | 26-Oct-2024 21:58 | 429276 | ||
| 46006_TS_DEWT_041993.nc | 26-Oct-2024 21:58 | 429273 | ||
| 46006_TS_DEWT_041994.nc | 26-Oct-2024 21:58 | 429288 | ||
| 46006_TS_DEWT_041995.nc | 26-Oct-2024 21:58 | 429262 | ||
| 46006_TS_DEWT_041996.nc | 26-Oct-2024 21:58 | 429266 | ||
| 46006_TS_DEWT_041997.nc | 26-Oct-2024 21:58 | 429292 | ||
| 46006_TS_DEWT_041998.nc | 26-Oct-2024 21:58 | 429288 | ||
| 46006_TS_DEWT_041999.nc | 26-Oct-2024 21:58 | 429287 | ||
| 46006_TS_DEWT_042001.nc | 26-Oct-2024 21:58 | 421297 | ||
| 46006_TS_DEWT_042002.nc | 26-Oct-2024 21:58 | 429289 | ||
| 46006_TS_DEWT_042003.nc | 26-Oct-2024 21:58 | 429282 | ||
| 46006_TS_DEWT_042004.nc | 26-Oct-2024 21:58 | 429290 | ||
| 46006_TS_DEWT_042005.nc | 26-Oct-2024 21:58 | 449911 | ||
| 46006_TS_DEWT_042006.nc | 26-Oct-2024 21:58 | 425936 | ||
| 46006_TS_DEWT_042009.nc | 26-Oct-2024 21:58 | 449487 | ||
| 46006_TS_DEWT_042011.nc | 26-Oct-2024 21:59 | 449448 | ||
| 46006_TS_DEWT_042012.nc | 26-Oct-2024 21:59 | 448898 | ||
| 46006_TS_DEWT_042017.nc | 26-Oct-2024 21:59 | 449193 | ||
| 46006_TS_DEWT_042018.nc | 26-Oct-2024 21:59 | 449121 | ||
| 46006_TS_DEWT_042019.nc | 26-Oct-2024 21:59 | 449923 | ||
| 46006_TS_DEWT_042021.nc | 26-Oct-2024 21:59 | 437738 | ||
| 46006_TS_DEWT_042022.nc | 26-Oct-2024 21:59 | 440750 | ||
| 46006_TS_DEWT_042023.nc | 26-Oct-2024 21:59 | 429490 | ||
| 46006_TS_DEWT_051977.nc | 26-Oct-2024 21:59 | 429489 | ||
| 46006_TS_DEWT_051978.nc | 26-Oct-2024 21:59 | 448828 | ||
| 46006_TS_DEWT_051979.nc | 26-Oct-2024 21:59 | 449985 | ||
| 46006_TS_DEWT_051980.nc | 26-Oct-2024 21:59 | 450411 | ||
| 46006_TS_DEWT_051981.nc | 26-Oct-2024 21:59 | 449260 | ||
| 46006_TS_DEWT_051982.nc | 26-Oct-2024 21:59 | 450153 | ||
| 46006_TS_DEWT_051983.nc | 26-Oct-2024 21:59 | 429493 | ||
| 46006_TS_DEWT_051985.nc | 26-Oct-2024 21:59 | 435773 | ||
| 46006_TS_DEWT_051987.nc | 26-Oct-2024 21:59 | 429488 | ||
| 46006_TS_DEWT_051989.nc | 26-Oct-2024 21:59 | 418799 | ||
| 46006_TS_DEWT_051990.nc | 26-Oct-2024 21:59 | 1111083 | ||
| 46006_TS_DEWT_051993.nc | 26-Oct-2024 21:59 | 1087014 | ||
| 46006_TS_DEWT_051994.nc | 26-Oct-2024 22:00 | 5084303 | ||
| 46006_TS_DEWT_051995.nc | 26-Oct-2024 22:00 | 429598 | ||
| 46006_TS_DEWT_051996.nc | 26-Oct-2024 22:00 | 429601 | ||
| 46006_TS_DEWT_051997.nc | 26-Oct-2024 22:00 | 429595 | ||
| 46006_TS_DEWT_051998.nc | 26-Oct-2024 22:00 | 429607 | ||
| 46006_TS_DEWT_051999.nc | 26-Oct-2024 22:00 | 429567 | ||
| 46006_TS_DEWT_052001.nc | 26-Oct-2024 22:00 | 429608 | ||
| 46006_TS_DEWT_052002.nc | 26-Oct-2024 22:00 | 429588 | ||
| 46006_TS_DEWT_052004.nc | 26-Oct-2024 22:00 | 429597 | ||
| 46006_TS_DEWT_052005.nc | 26-Oct-2024 22:00 | 429601 | ||
| 46006_TS_DEWT_052006.nc | 26-Oct-2024 22:00 | 429607 | ||
| 46006_TS_DEWT_052009.nc | 26-Oct-2024 22:00 | 429584 | ||
| 46006_TS_DEWT_052011.nc | 26-Oct-2024 22:00 | 429616 | ||
| 46006_TS_DEWT_052012.nc | 26-Oct-2024 22:00 | 429609 | ||
| 46006_TS_DEWT_052017.nc | 26-Oct-2024 22:00 | 429608 | ||
| 46006_TS_DEWT_052019.nc | 26-Oct-2024 22:00 | 429619 | ||
| 46006_TS_DEWT_052021.nc | 26-Oct-2024 22:01 | 429620 | ||
| 46006_TS_DEWT_052022.nc | 26-Oct-2024 22:01 | 429609 | ||
| 46006_TS_DEWT_052023.nc | 26-Oct-2024 22:01 | 451129 | ||
| 46006_TS_DEWT_061977.nc | 26-Oct-2024 22:01 | 430928 | ||
| 46006_TS_DEWT_061978.nc | 26-Oct-2024 22:01 | 449331 | ||
| 46006_TS_DEWT_061979.nc | 26-Oct-2024 22:01 | 449770 | ||
| 46006_TS_DEWT_061981.nc | 26-Oct-2024 22:01 | 450474 | ||
| 46006_TS_DEWT_061982.nc | 26-Oct-2024 22:01 | 450400 | ||
| 46006_TS_DEWT_061983.nc | 26-Oct-2024 22:01 | 450979 | ||
| 46006_TS_DEWT_061985.nc | 26-Oct-2024 22:01 | 450969 | ||
| 46006_TS_DEWT_061986.nc | 26-Oct-2024 22:01 | 450043 | ||
| 46006_TS_DEWT_061987.nc | 26-Oct-2024 22:01 | 450613 | ||
| 46006_TS_DEWT_061989.nc | 26-Oct-2024 22:01 | 429831 | ||
| 46006_TS_DEWT_061990.nc | 26-Oct-2024 22:01 | 429836 | ||
| 46006_TS_DEWT_061992.nc | 26-Oct-2024 22:01 | 449667 | ||
| 46006_TS_DEWT_061993.nc | 26-Oct-2024 22:01 | 451099 | ||
| 46006_TS_DEWT_061994.nc | 26-Oct-2024 22:01 | 451029 | ||
| 46006_TS_DEWT_061995.nc | 26-Oct-2024 22:01 | 441160 | ||
| 46006_TS_DEWT_061996.nc | 26-Oct-2024 22:02 | 444491 | ||
| 46006_TS_DEWT_061997.nc | 26-Oct-2024 22:02 | 429818 | ||
| 46006_TS_DEWT_061998.nc | 26-Oct-2024 22:02 | 429815 | ||
| 46006_TS_DEWT_061999.nc | 26-Oct-2024 22:02 | 428619 | ||
| 46006_TS_DEWT_062001.nc | 26-Oct-2024 22:02 | 1114937 | ||
| 46006_TS_DEWT_062002.nc | 26-Oct-2024 22:02 | 1265236 | ||
| 46006_TS_DEWT_062004.nc | 26-Oct-2024 22:02 | 1264351 | ||
| 46006_TS_DEWT_062005.nc | 26-Oct-2024 22:02 | 4736448 | ||
| 46006_TS_DEWT_062006.nc | 26-Oct-2024 22:02 | 429601 | ||
| 46006_TS_DEWT_062009.nc | 26-Oct-2024 22:02 | 429596 | ||
| 46006_TS_DEWT_062011.nc | 26-Oct-2024 22:02 | 429587 | ||
| 46006_TS_DEWT_062012.nc | 26-Oct-2024 22:02 | 429617 | ||
| 46006_TS_DEWT_062016.nc | 26-Oct-2024 22:02 | 429609 | ||
| 46006_TS_DEWT_062017.nc | 26-Oct-2024 22:02 | 429613 | ||
| 46006_TS_DEWT_062019.nc | 26-Oct-2024 22:02 | 429614 | ||
| 46006_TS_DEWT_062021.nc | 26-Oct-2024 22:02 | 429567 | ||
| 46006_TS_DEWT_062022.nc | 26-Oct-2024 22:02 | 429600 | ||
| 46006_TS_DEWT_062023.nc | 26-Oct-2024 22:02 | 429618 | ||
| 46006_TS_DEWT_071977.nc | 26-Oct-2024 22:03 | 429607 | ||
| 46006_TS_DEWT_071978.nc | 26-Oct-2024 22:03 | 429608 | ||
| 46006_TS_DEWT_071979.nc | 26-Oct-2024 22:03 | 429615 | ||
| 46006_TS_DEWT_071981.nc | 26-Oct-2024 22:03 | 429611 | ||
| 46006_TS_DEWT_071982.nc | 26-Oct-2024 22:03 | 429608 | ||
| 46006_TS_DEWT_071983.nc | 26-Oct-2024 22:03 | 429619 | ||
| 46006_TS_DEWT_071985.nc | 26-Oct-2024 22:03 | 429613 | ||
| 46006_TS_DEWT_071986.nc | 26-Oct-2024 22:03 | 449671 | ||
| 46006_TS_DEWT_071987.nc | 26-Oct-2024 22:03 | 450126 | ||
| 46006_TS_DEWT_071989.nc | 26-Oct-2024 22:03 | 450341 | ||
| 46006_TS_DEWT_071990.nc | 26-Oct-2024 22:03 | 450570 | ||
| 46006_TS_DEWT_071992.nc | 26-Oct-2024 22:03 | 450747 | ||
| 46006_TS_DEWT_071993.nc | 26-Oct-2024 22:03 | 450861 | ||
| 46006_TS_DEWT_071994.nc | 26-Oct-2024 22:03 | 450422 | ||
| 46006_TS_DEWT_071995.nc | 26-Oct-2024 22:03 | 450734 | ||
| 46006_TS_DEWT_071996.nc | 26-Oct-2024 22:03 | 449344 | ||
| 46006_TS_DEWT_071997.nc | 26-Oct-2024 22:03 | 450452 | ||
| 46006_TS_DEWT_071998.nc | 26-Oct-2024 22:03 | 429834 | ||
| 46006_TS_DEWT_071999.nc | 26-Oct-2024 22:03 | 429829 | ||
| 46006_TS_DEWT_072001.nc | 26-Oct-2024 22:04 | 450972 | ||
| 46006_TS_DEWT_072002.nc | 26-Oct-2024 22:04 | 449882 | ||
| 46006_TS_DEWT_072003.nc | 26-Oct-2024 22:04 | 450733 | ||
| 46006_TS_DEWT_072004.nc | 26-Oct-2024 22:04 | 429834 | ||
| 46006_TS_DEWT_072005.nc | 26-Oct-2024 22:04 | 429833 | ||
| 46006_TS_DEWT_072006.nc | 26-Oct-2024 22:04 | 429741 | ||
| 46006_TS_DEWT_072009.nc | 26-Oct-2024 22:04 | 429833 | ||
| 46006_TS_DEWT_072011.nc | 26-Oct-2024 22:04 | 1267026 | ||
| 46006_TS_DEWT_072012.nc | 26-Oct-2024 22:04 | 1268047 | ||
| 46006_TS_DEWT_072016.nc | 26-Oct-2024 22:04 | 1266379 | ||
| 46006_TS_DEWT_072017.nc | 26-Oct-2024 22:04 | 5409071 | ||
| 46006_TS_DEWT_072019.nc | 26-Oct-2024 22:04 | 429238 | ||
| 46006_TS_DEWT_072021.nc | 26-Oct-2024 22:04 | 429260 | ||
| 46006_TS_DEWT_072022.nc | 26-Oct-2024 22:04 | 429249 | ||
| 46006_TS_DEWT_072024.nc | 08-Jan-2025 23:28 | 428775 | ||
| 46006_TS_DEWT_081977.nc | 26-Oct-2024 22:04 | 429291 | ||
| 46006_TS_DEWT_081978.nc | 26-Oct-2024 22:04 | 429279 | ||
| 46006_TS_DEWT_081979.nc | 26-Oct-2024 22:04 | 429284 | ||
| 46006_TS_DEWT_081981.nc | 26-Oct-2024 22:04 | 429224 | ||
| 46006_TS_DEWT_081982.nc | 26-Oct-2024 22:04 | 429279 | ||
| 46006_TS_DEWT_081983.nc | 26-Oct-2024 22:04 | 429263 | ||
| 46006_TS_DEWT_081985.nc | 26-Oct-2024 22:04 | 429273 | ||
| 46006_TS_DEWT_081986.nc | 26-Oct-2024 22:05 | 426805 | ||
| 46006_TS_DEWT_081987.nc | 26-Oct-2024 22:05 | 429284 | ||
| 46006_TS_DEWT_081988.nc | 26-Oct-2024 22:05 | 429285 | ||
| 46006_TS_DEWT_081989.nc | 26-Oct-2024 22:05 | 429290 | ||
| 46006_TS_DEWT_081990.nc | 26-Oct-2024 22:05 | 429279 | ||
| 46006_TS_DEWT_081992.nc | 26-Oct-2024 22:05 | 429291 | ||
| 46006_TS_DEWT_081993.nc | 26-Oct-2024 22:05 | 449262 | ||
| 46006_TS_DEWT_081994.nc | 26-Oct-2024 22:05 | 434141 | ||
| 46006_TS_DEWT_081995.nc | 26-Oct-2024 22:05 | 449729 | ||
| 46006_TS_DEWT_081996.nc | 26-Oct-2024 22:05 | 449513 | ||
| 46006_TS_DEWT_081998.nc | 26-Oct-2024 22:05 | 450468 | ||
| 46006_TS_DEWT_081999.nc | 26-Oct-2024 22:05 | 449491 | ||
| 46006_TS_DEWT_082000.nc | 26-Oct-2024 22:05 | 449451 | ||
| 46006_TS_DEWT_082001.nc | 26-Oct-2024 22:05 | 449021 | ||
| 46006_TS_DEWT_082002.nc | 26-Oct-2024 22:05 | 448863 | ||
| 46006_TS_DEWT_082003.nc | 26-Oct-2024 22:05 | 449628 | ||
| 46006_TS_DEWT_082004.nc | 26-Oct-2024 22:05 | 429473 | ||
| 46006_TS_DEWT_082005.nc | 26-Oct-2024 22:05 | 429492 | ||
| 46006_TS_DEWT_082006.nc | 26-Oct-2024 22:05 | 449658 | ||
| 46006_TS_DEWT_082007.nc | 26-Oct-2024 22:05 | 449665 | ||
| 46006_TS_DEWT_082008.nc | 26-Oct-2024 22:06 | 449724 | ||
| 46006_TS_DEWT_082009.nc | 26-Oct-2024 22:06 | 429488 | ||
| 46006_TS_DEWT_082010.nc | 26-Oct-2024 22:06 | 429493 | ||
| 46006_TS_DEWT_082011.nc | 26-Oct-2024 22:06 | 429416 | ||
| 46006_TS_DEWT_082012.nc | 26-Oct-2024 22:06 | 429504 | ||
| 46006_TS_DEWT_082016.nc | 26-Oct-2024 22:06 | 1112145 | ||
| 46006_TS_DEWT_082017.nc | 26-Oct-2024 22:06 | 1117959 | ||
| 46006_TS_DEWT_082019.nc | 26-Oct-2024 22:06 | 1109376 | ||
| 46006_TS_DEWT_082021.nc | 26-Oct-2024 22:06 | 4883567 | ||
| 46006_TS_DEWT_082022.nc | 26-Oct-2024 22:06 | 429264 | ||
| 46006_TS_DEWT_082024.nc | 17-Jan-2025 12:13 | 429605 | ||
| 46006_TS_DEWT_091977.nc | 26-Oct-2024 22:06 | 429592 | ||
| 46006_TS_DEWT_091978.nc | 26-Oct-2024 22:06 | 429613 | ||
| 46006_TS_DEWT_091979.nc | 26-Oct-2024 22:06 | 429614 | ||
| 46006_TS_DEWT_091981.nc | 26-Oct-2024 22:06 | 429621 | ||
| 46006_TS_DEWT_091982.nc | 26-Oct-2024 22:06 | 429608 | ||
| 46006_TS_DEWT_091983.nc | 26-Oct-2024 22:06 | 429609 | ||
| 46006_TS_DEWT_091985.nc | 26-Oct-2024 22:06 | 428271 | ||
| 46006_TS_DEWT_091986.nc | 26-Oct-2024 22:06 | 429608 | ||
| 46006_TS_DEWT_091987.nc | 26-Oct-2024 22:06 | 429606 | ||
| 46006_TS_DEWT_091988.nc | 26-Oct-2024 22:06 | 429607 | ||
| 46006_TS_DEWT_091989.nc | 26-Oct-2024 22:07 | 429608 | ||
| 46006_TS_DEWT_091990.nc | 26-Oct-2024 22:07 | 429280 | ||
| 46006_TS_DEWT_091992.nc | 26-Oct-2024 22:07 | 429618 | ||
| 46006_TS_DEWT_091993.nc | 26-Oct-2024 22:07 | 429608 | ||
| 46006_TS_DEWT_091994.nc | 26-Oct-2024 22:07 | 450985 | ||
| 46006_TS_DEWT_091995.nc | 26-Oct-2024 22:07 | 450015 | ||
| 46006_TS_DEWT_091996.nc | 26-Oct-2024 22:07 | 449943 | ||
| 46006_TS_DEWT_091998.nc | 26-Oct-2024 22:07 | 442288 | ||
| 46006_TS_DEWT_091999.nc | 26-Oct-2024 22:07 | 450131 | ||
| 46006_TS_DEWT_092000.nc | 26-Oct-2024 22:07 | 449938 | ||
| 46006_TS_DEWT_092001.nc | 26-Oct-2024 22:07 | 451589 | ||
| 46006_TS_DEWT_092002.nc | 26-Oct-2024 22:07 | 450554 | ||
| 46006_TS_DEWT_092003.nc | 26-Oct-2024 22:07 | 451304 | ||
| 46006_TS_DEWT_092004.nc | 26-Oct-2024 22:07 | 451787 | ||
| 46006_TS_DEWT_092005.nc | 26-Oct-2024 22:07 | 429835 | ||
| 46006_TS_DEWT_092006.nc | 26-Oct-2024 22:07 | 429829 | ||
| 46006_TS_DEWT_092007.nc | 26-Oct-2024 22:07 | 441273 | ||
| 46006_TS_DEWT_092008.nc | 26-Oct-2024 22:07 | 450799 | ||
| 46006_TS_DEWT_092009.nc | 26-Oct-2024 22:07 | 450443 | ||
| 46006_TS_DEWT_092010.nc | 26-Oct-2024 22:08 | 429842 | ||
| 46006_TS_DEWT_092011.nc | 26-Oct-2024 22:08 | 429828 | ||
| 46006_TS_DEWT_092012.nc | 26-Oct-2024 22:08 | 429830 | ||
| 46006_TS_DEWT_092016.nc | 26-Oct-2024 22:08 | 429805 | ||
| 46006_TS_DEWT_092017.nc | 26-Oct-2024 22:08 | 1264143 | ||
| 46006_TS_DEWT_092019.nc | 26-Oct-2024 22:08 | 1259500 | ||
| 46006_TS_DEWT_092020.nc | 26-Oct-2024 22:08 | 1264282 | ||
| 46006_TS_DEWT_092021.nc | 26-Oct-2024 22:08 | 494013 | ||
| 46006_TS_DEWT_092022.nc | 26-Oct-2024 22:08 | 5951183 | ||
| 46006_TS_DEWT_092024.nc | 17-Jan-2025 12:15 | 429175 | ||
| 46006_TS_DEWT_101977.nc | 26-Oct-2024 22:08 | 429267 | ||
| 46006_TS_DEWT_101978.nc | 26-Oct-2024 22:08 | 429271 | ||
| 46006_TS_DEWT_101979.nc | 26-Oct-2024 22:08 | 429289 | ||
| 46006_TS_DEWT_101981.nc | 26-Oct-2024 22:08 | 422861 | ||
| 46006_TS_DEWT_101982.nc | 26-Oct-2024 22:08 | 429283 | ||
| 46006_TS_DEWT_101983.nc | 26-Oct-2024 22:08 | 429290 | ||
| 46006_TS_DEWT_101985.nc | 26-Oct-2024 22:08 | 429275 | ||
| 46006_TS_DEWT_101986.nc | 26-Oct-2024 22:08 | 429269 | ||
| 46006_TS_DEWT_101987.nc | 26-Oct-2024 22:08 | 428966 | ||
| 46006_TS_DEWT_101988.nc | 26-Oct-2024 22:08 | 422329 | ||
| 46006_TS_DEWT_101989.nc | 26-Oct-2024 22:08 | 429291 | ||
| 46006_TS_DEWT_101990.nc | 26-Oct-2024 22:08 | 429284 | ||
| 46006_TS_DEWT_101992.nc | 26-Oct-2024 22:09 | 429279 | ||
| 46006_TS_DEWT_101993.nc | 26-Oct-2024 22:09 | 429284 | ||
| 46006_TS_DEWT_101994.nc | 26-Oct-2024 22:09 | 438338 | ||
| 46006_TS_DEWT_101995.nc | 26-Oct-2024 22:09 | 449416 | ||
| 46006_TS_DEWT_101996.nc | 26-Oct-2024 22:09 | 448933 | ||
| 46006_TS_DEWT_101998.nc | 26-Oct-2024 22:09 | 449322 | ||
| 46006_TS_DEWT_101999.nc | 26-Oct-2024 22:09 | 422243 | ||
| 46006_TS_DEWT_102000.nc | 26-Oct-2024 22:09 | 450715 | ||
| 46006_TS_DEWT_102001.nc | 26-Oct-2024 22:09 | 449362 | ||
| 46006_TS_DEWT_102002.nc | 26-Oct-2024 22:09 | 450262 | ||
| 46006_TS_DEWT_102003.nc | 26-Oct-2024 22:09 | 449086 | ||
| 46006_TS_DEWT_102004.nc | 26-Oct-2024 22:09 | 449756 | ||
| 46006_TS_DEWT_102005.nc | 26-Oct-2024 22:09 | 449789 | ||
| 46006_TS_DEWT_102006.nc | 26-Oct-2024 22:09 | 429493 | ||
| 46006_TS_DEWT_102007.nc | 26-Oct-2024 22:09 | 429487 | ||
| 46006_TS_DEWT_102008.nc | 26-Oct-2024 22:09 | 429489 | ||
| 46006_TS_DEWT_102009.nc | 26-Oct-2024 22:09 | 448645 | ||
| 46006_TS_DEWT_102010.nc | 26-Oct-2024 22:09 | 449350 | ||
| 46006_TS_DEWT_102011.nc | 26-Oct-2024 22:09 | 429472 | ||
| 46006_TS_DEWT_102012.nc | 26-Oct-2024 22:09 | 429476 | ||
| 46006_TS_DEWT_102016.nc | 26-Oct-2024 22:10 | 429487 | ||
| 46006_TS_DEWT_102017.nc | 26-Oct-2024 22:10 | 429097 | ||
| 46006_TS_DEWT_102018.nc | 26-Oct-2024 22:10 | 1118338 | ||
| 46006_TS_DEWT_102019.nc | 26-Oct-2024 22:10 | 1115563 | ||
| 46006_TS_DEWT_102020.nc | 26-Oct-2024 22:10 | 1116737 | ||
| 46006_TS_DEWT_102021.nc | 26-Oct-2024 22:10 | 5423152 | ||
| 46006_TS_DEWT_102022.nc | 26-Oct-2024 22:10 | 5422601 | ||
| 46006_TS_DEWT_102024.nc | 17-Jan-2025 14:18 | 427703 | ||
| 46006_TS_DEWT_102025.nc | 15-Nov-2025 06:45 | 422970 | ||
| 46006_TS_DEWT_111977.nc | 26-Oct-2024 22:10 | 429604 | ||
| 46006_TS_DEWT_111978.nc | 26-Oct-2024 22:10 | 429609 | ||
| 46006_TS_DEWT_111979.nc | 26-Oct-2024 22:10 | 429574 | ||
| 46006_TS_DEWT_111981.nc | 26-Oct-2024 22:10 | 429608 | ||
| 46006_TS_DEWT_111982.nc | 26-Oct-2024 22:10 | 429614 | ||
| 46006_TS_DEWT_111983.nc | 26-Oct-2024 22:10 | 429609 | ||
| 46006_TS_DEWT_111985.nc | 26-Oct-2024 22:10 | 429614 | ||
| 46006_TS_DEWT_111986.nc | 26-Oct-2024 22:10 | 429614 | ||
| 46006_TS_DEWT_111987.nc | 26-Oct-2024 22:10 | 429606 | ||
| 46006_TS_DEWT_111988.nc | 26-Oct-2024 22:10 | 429615 | ||
| 46006_TS_DEWT_111989.nc | 26-Oct-2024 22:10 | 429618 | ||
| 46006_TS_DEWT_111990.nc | 26-Oct-2024 22:10 | 429607 | ||
| 46006_TS_DEWT_111992.nc | 26-Oct-2024 22:11 | 451194 | ||
| 46006_TS_DEWT_111993.nc | 26-Oct-2024 22:11 | 450325 | ||
| 46006_TS_DEWT_111994.nc | 26-Oct-2024 22:11 | 450861 | ||
| 46006_TS_DEWT_111995.nc | 26-Oct-2024 22:11 | 450803 | ||
| 46006_TS_DEWT_111996.nc | 26-Oct-2024 22:11 | 434501 | ||
| 46006_TS_DEWT_111998.nc | 26-Oct-2024 22:11 | 450816 | ||
| 46006_TS_DEWT_111999.nc | 26-Oct-2024 22:11 | 450768 | ||
| 46006_TS_DEWT_112000.nc | 26-Oct-2024 22:11 | 450928 | ||
| 46006_TS_DEWT_112001.nc | 26-Oct-2024 22:11 | 450386 | ||
| 46006_TS_DEWT_112002.nc | 26-Oct-2024 22:11 | 451647 | ||
| 46006_TS_DEWT_112003.nc | 26-Oct-2024 22:11 | 442941 | ||
| 46006_TS_DEWT_112004.nc | 26-Oct-2024 22:11 | 429830 | ||
| 46006_TS_DEWT_112005.nc | 26-Oct-2024 22:11 | 419602 | ||
| 46006_TS_DEWT_112006.nc | 26-Oct-2024 22:11 | 429835 | ||
| 46006_TS_DEWT_112007.nc | 26-Oct-2024 22:11 | 449575 | ||
| 46006_TS_DEWT_112008.nc | 26-Oct-2024 22:12 | 451458 | ||
| 46006_TS_DEWT_112009.nc | 26-Oct-2024 22:12 | 429827 | ||
| 46006_TS_DEWT_112010.nc | 26-Oct-2024 22:12 | 429583 | ||
| 46006_TS_DEWT_112011.nc | 26-Oct-2024 22:12 | 429834 | ||
| 46006_TS_DEWT_112012.nc | 26-Oct-2024 22:12 | 429828 | ||
| 46006_TS_DEWT_112016.nc | 26-Oct-2024 22:12 | 1269236 | ||
| 46006_TS_DEWT_112017.nc | 26-Oct-2024 22:12 | 1268988 | ||
| 46006_TS_DEWT_112018.nc | 26-Oct-2024 22:12 | 1335159 | ||
| 46006_TS_DEWT_112019.nc | 26-Oct-2024 22:12 | 5307246 | ||
| 46006_TS_DEWT_112020.nc | 26-Oct-2024 22:12 | 5916306 | ||
| 46006_TS_DEWT_112021.nc | 26-Oct-2024 22:12 | 426525 | ||
| 46006_TS_DEWT_112022.nc | 26-Oct-2024 22:12 | 429603 | ||
| 46006_TS_DEWT_112023.nc | 26-Oct-2024 22:12 | 429690 | ||
| 46006_TS_DEWT_112024.nc | 17-Jan-2025 14:19 | 429613 | ||
| 46006_TS_DEWT_112025.nc | 01-Dec-2025 07:21 | 429621 | ||
| 46006_TS_DEWT_121977.nc | 26-Oct-2024 22:12 | 429620 | ||
| 46006_TS_DEWT_121978.nc | 26-Oct-2024 22:12 | 429348 | ||
| 46006_TS_DEWT_121979.nc | 26-Oct-2024 22:13 | 429586 | ||
| 46006_TS_DEWT_121981.nc | 26-Oct-2024 22:13 | 425739 | ||
| 46006_TS_DEWT_121982.nc | 26-Oct-2024 22:13 | 429610 | ||
| 46006_TS_DEWT_121983.nc | 26-Oct-2024 22:13 | 429616 | ||
| 46006_TS_DEWT_121985.nc | 26-Oct-2024 22:13 | 429610 | ||
| 46006_TS_DEWT_121986.nc | 26-Oct-2024 22:13 | 429608 | ||
| 46006_TS_DEWT_121987.nc | 26-Oct-2024 22:13 | 429615 | ||
| 46006_TS_DEWT_121988.nc | 26-Oct-2024 22:13 | 425949 | ||
| 46006_TS_DEWT_121989.nc | 26-Oct-2024 22:13 | 429610 | ||
| 46006_TS_DEWT_121990.nc | 26-Oct-2024 22:13 | 449959 | ||
| 46006_TS_DEWT_121992.nc | 26-Oct-2024 22:13 | 439243 | ||
| 46006_TS_DEWT_121993.nc | 26-Oct-2024 22:13 | 423236 | ||
| 46006_TS_DEWT_121994.nc | 26-Oct-2024 22:13 | 439594 | ||
| 46006_TS_DEWT_121995.nc | 26-Oct-2024 22:13 | 450168 | ||
| 46006_TS_DEWT_121996.nc | 26-Oct-2024 22:13 | 451254 | ||
| 46006_TS_DEWT_121997.nc | 26-Oct-2024 22:13 | 451500 | ||
| 46006_TS_DEWT_121998.nc | 26-Oct-2024 22:13 | 450260 | ||
| 46006_TS_DEWT_121999.nc | 26-Oct-2024 22:13 | 421403 | ||
| 46006_TS_DEWT_122000.nc | 26-Oct-2024 22:14 | 452054 | ||
| 46006_TS_DEWT_122001.nc | 26-Oct-2024 22:14 | 429834 | ||
| 46006_TS_DEWT_122002.nc | 26-Oct-2024 22:14 | 429834 | ||
| 46006_TS_DEWT_122003.nc | 26-Oct-2024 22:14 | 1144086 | ||
| 46006_TS_DEWT_122004.nc | 26-Oct-2024 22:14 | 1201039 | ||
| 46006_TS_DEWT_122005.nc | 26-Oct-2024 22:14 | 1144168 | ||
| 46006_TS_DEWT_122006.nc | 26-Oct-2024 22:14 | 4879746 | ||
| 46006_TS_DEWT_122007.nc | 26-Oct-2024 22:14 | 3408507 | ||
| 46006_TS_DEWT_122008.nc | 26-Oct-2024 22:14 | 419704 | ||
| 46006_TS_DEWT_122009.nc | 26-Oct-2024 22:14 | 427056 | ||
| 46006_TS_DEWT_122010.nc | 26-Oct-2024 22:14 | 428610 | ||
| 46006_TS_DEWT_122011.nc | 26-Oct-2024 22:14 | 428158 | ||
| 46006_TS_DEWT_122012.nc | 26-Oct-2024 22:14 | 428615 | ||
| 46006_TS_DEWT_122016.nc | 26-Oct-2024 22:14 | 428615 | ||
| 46006_TS_DEWT_122017.nc | 26-Oct-2024 22:14 | 428568 | ||
| 46006_TS_DEWT_122018.nc | 26-Oct-2024 22:14 | 425231 | ||
| 46006_TS_DEWT_122019.nc | 26-Oct-2024 22:14 | 428451 | ||
| 46006_TS_DEWT_122020.nc | 26-Oct-2024 22:14 | 428615 | ||
| 46006_TS_DEWT_122021.nc | 26-Oct-2024 22:14 | 428960 | ||
| 46006_TS_DEWT_122022.nc | 26-Oct-2024 22:15 | 428612 | ||
| 46006_TS_DEWT_122023.nc | 06-Dec-2024 13:12 | 428614 | ||
| 46006_TS_DEWT_122024.nc | 22-Jan-2025 16:14 | 428612 | ||
| 46006_TS_DEWT_122025.nc | 04-Dec-2025 05:26 | 428615 | ||